createdAt,value
2017-10-18T00:00:50.997Z,9.70
2017-10-18T00:03:19.232Z,9.70
2017-10-18T00:05:47.580Z,9.70
2017-10-18T00:08:15.814Z,9.70
2017-10-18T00:10:44.085Z,9.80
2017-10-18T00:13:12.352Z,10.00
2017-10-18T00:15:40.580Z,10.00
2017-10-18T00:18:08.817Z,9.90
2017-10-18T00:20:37.936Z,9.80
2017-10-18T00:23:06.173Z,9.70
2017-10-18T00:25:34.419Z,9.80
2017-10-18T00:28:03.425Z,9.70
2017-10-18T00:30:31.888Z,9.70
2017-10-18T00:33:00.167Z,9.70
2017-10-18T00:35:28.476Z,9.60
2017-10-18T00:37:57.507Z,9.50
2017-10-18T00:40:25.763Z,9.40
2017-10-18T00:42:54.039Z,9.50
2017-10-18T00:45:22.300Z,9.50
2017-10-18T00:47:50.571Z,9.50
2017-10-18T00:50:18.831Z,9.50
2017-10-18T00:52:47.143Z,9.50
2017-10-18T00:55:15.403Z,9.50
2017-10-18T00:57:43.716Z,9.40
2017-10-18T01:00:12.007Z,9.50
2017-10-18T01:02:40.264Z,9.50
2017-10-18T01:05:08.553Z,9.50
2017-10-18T01:07:37.574Z,9.50
2017-10-18T01:10:05.926Z,9.40
2017-10-18T01:12:34.174Z,9.40
2017-10-18T01:15:02.452Z,9.40
2017-10-18T01:17:30.710Z,9.40
2017-10-18T01:19:59.018Z,9.30
2017-10-18T01:22:28.040Z,9.30
2017-10-18T01:24:56.304Z,9.30
2017-10-18T01:27:24.591Z,9.30
2017-10-18T01:29:52.843Z,9.20
2017-10-18T01:32:21.159Z,9.20
2017-10-18T01:34:49.420Z,9.10
2017-10-18T01:37:18.442Z,9.00
2017-10-18T01:39:46.723Z,9.00
2017-10-18T01:42:16.495Z,8.90
2017-10-18T01:44:44.767Z,8.90
2017-10-18T01:47:13.047Z,8.90
2017-10-18T01:49:41.534Z,8.90
2017-10-18T01:52:10.624Z,8.80
2017-10-18T01:54:39.643Z,8.80
2017-10-18T01:57:07.980Z,8.70
2017-10-18T01:59:36.243Z,8.80
2017-10-18T02:02:04.720Z,8.80
2017-10-18T02:04:32.983Z,8.80
2017-10-18T02:07:01.267Z,8.80
2017-10-18T02:09:29.527Z,8.70
2017-10-18T02:11:57.791Z,8.80
2017-10-18T02:14:26.067Z,8.90
2017-10-18T02:16:54.330Z,8.80
2017-10-18T02:19:22.611Z,8.80
2017-10-18T02:21:51.635Z,8.70
2017-10-18T02:24:19.924Z,8.70
2017-10-18T02:26:48.178Z,8.70
2017-10-18T02:29:16.439Z,8.60
2017-10-18T02:31:46.648Z,8.50
2017-10-18T02:34:14.910Z,8.50
2017-10-18T02:36:43.366Z,8.50
2017-10-18T02:39:11.631Z,8.60
2017-10-18T02:41:39.930Z,8.50
2017-10-18T02:44:08.955Z,8.50
2017-10-18T02:46:37.210Z,8.40
2017-10-18T02:49:05.487Z,8.40
2017-10-18T02:51:33.747Z,8.40
2017-10-18T02:54:02.027Z,8.40
2017-10-18T02:56:30.290Z,8.40
2017-10-18T02:58:58.565Z,8.40
2017-10-18T03:01:27.589Z,8.50
2017-10-18T03:03:55.871Z,8.40
2017-10-18T03:06:24.143Z,8.40
2017-10-18T03:08:52.439Z,8.40
2017-10-18T03:11:21.482Z,8.40
2017-10-18T03:13:49.736Z,8.40
2017-10-18T03:16:18.011Z,8.40
2017-10-18T03:18:47.775Z,8.30
2017-10-18T03:21:16.054Z,8.30
2017-10-18T03:23:44.327Z,8.40
2017-10-18T03:26:12.651Z,8.30
2017-10-18T03:28:40.912Z,8.30
2017-10-18T03:31:09.171Z,8.30
2017-10-18T03:33:37.444Z,8.20
2017-10-18T03:36:05.698Z,8.20
2017-10-18T03:38:33.979Z,8.10
2017-10-18T03:41:02.244Z,8.10
2017-10-18T03:43:30.515Z,8.10
2017-10-18T03:45:58.780Z,8.10
2017-10-18T03:48:27.036Z,8.10
2017-10-18T03:50:56.078Z,8.00
2017-10-18T03:53:24.340Z,8.00
2017-10-18T03:55:52.639Z,8.10
2017-10-18T03:58:20.894Z,8.10
2017-10-18T04:00:49.154Z,8.10
2017-10-18T04:03:17.431Z,8.00
2017-10-18T04:05:45.694Z,7.90
2017-10-18T04:08:13.969Z,7.80
2017-10-18T04:10:42.991Z,7.90
2017-10-18T04:13:11.303Z,7.80
2017-10-18T04:15:40.327Z,7.80
2017-10-18T04:18:08.591Z,7.80
2017-10-18T04:20:36.876Z,7.80
2017-10-18T04:23:05.138Z,7.70
2017-10-18T04:25:33.411Z,7.70
2017-10-18T04:28:01.667Z,7.70
2017-10-18T04:30:29.983Z,7.70
2017-10-18T04:32:58.242Z,7.70
2017-10-18T04:35:26.507Z,7.70
2017-10-18T04:37:54.782Z,7.60
2017-10-18T04:40:23.035Z,7.50
2017-10-18T04:42:51.311Z,7.50
2017-10-18T04:45:19.580Z,7.50
2017-10-18T04:47:47.921Z,7.50
2017-10-18T04:50:16.183Z,7.50
2017-10-18T04:52:44.488Z,7.50
2017-10-18T04:55:12.764Z,7.50
2017-10-18T04:57:41.014Z,7.50
2017-10-18T05:00:09.292Z,7.40
2017-10-18T05:02:38.316Z,7.40
2017-10-18T05:05:06.616Z,7.40
2017-10-18T05:07:34.998Z,7.40
2017-10-18T05:10:03.263Z,7.40
2017-10-18T05:12:32.303Z,7.30
2017-10-18T05:15:01.380Z,7.40
2017-10-18T05:17:29.656Z,7.30
2017-10-18T05:19:57.915Z,7.30
2017-10-18T05:22:26.198Z,7.30
2017-10-18T05:24:55.223Z,7.30
2017-10-18T05:27:23.532Z,7.20
2017-10-18T05:29:52.232Z,7.20
2017-10-18T05:32:20.484Z,7.20
2017-10-18T05:34:48.762Z,7.20
2017-10-18T05:37:17.025Z,7.20
2017-10-18T05:39:45.315Z,7.10
2017-10-18T05:42:13.571Z,7.00
2017-10-18T05:44:41.870Z,7.10
2017-10-18T05:47:11.032Z,7.10
2017-10-18T05:49:39.287Z,7.20
2017-10-18T05:52:07.569Z,7.20
2017-10-18T05:54:35.823Z,7.30
2017-10-18T05:57:04.107Z,7.40
2017-10-18T05:59:33.141Z,7.40
2017-10-18T06:02:01.435Z,7.30
2017-10-18T06:04:30.455Z,7.40
2017-10-18T06:06:58.711Z,7.40
2017-10-18T06:09:26.987Z,7.40
2017-10-18T06:11:55.247Z,7.40
2017-10-18T06:14:23.531Z,7.50
2017-10-18T06:16:51.789Z,7.50
2017-10-18T06:19:20.091Z,7.60
2017-10-18T06:21:49.595Z,7.60
2017-10-18T06:24:17.859Z,7.60
2017-10-18T06:26:46.131Z,7.60
2017-10-18T06:29:14.399Z,7.60
2017-10-18T06:31:42.686Z,7.60
2017-10-18T06:34:11.071Z,7.70
2017-10-18T06:36:39.363Z,7.70
2017-10-18T06:39:08.388Z,7.80
2017-10-18T06:41:36.651Z,7.70
2017-10-18T06:44:04.927Z,7.80
2017-10-18T06:46:33.190Z,7.90
2017-10-18T06:49:01.468Z,8.20
2017-10-18T06:51:30.499Z,8.40
2017-10-18T06:53:58.819Z,8.30
2017-10-18T06:56:27.095Z,8.60
2017-10-18T06:58:55.368Z,8.70
2017-10-18T07:01:23.642Z,8.70
2017-10-18T07:03:51.908Z,8.80
2017-10-18T07:06:20.190Z,8.90
2017-10-18T07:08:48.462Z,9.00
2017-10-18T07:11:16.751Z,9.10
2017-10-18T07:13:45.019Z,9.20
2017-10-18T07:16:13.280Z,9.40
2017-10-18T07:18:41.556Z,9.50
2017-10-18T07:21:09.835Z,9.60
2017-10-18T07:23:38.124Z,9.70
2017-10-18T07:26:06.379Z,9.80
2017-10-18T07:28:36.553Z,10.00
2017-10-18T07:31:04.859Z,10.00
2017-10-18T07:33:33.895Z,10.20
2017-10-18T07:36:02.200Z,10.20
2017-10-18T07:38:30.455Z,10.30
2017-10-18T07:40:58.739Z,10.40
2017-10-18T07:43:27.028Z,10.50
2017-10-18T07:45:55.335Z,10.60
2017-10-18T07:48:23.603Z,10.70
2017-10-18T07:50:51.880Z,11.00
2017-10-18T07:53:20.923Z,11.40
2017-10-18T07:55:49.191Z,11.30
2017-10-18T07:58:17.478Z,11.50
2017-10-18T08:00:46.518Z,11.60
2017-10-18T08:03:14.826Z,11.60
2017-10-18T08:05:43.103Z,11.70
2017-10-18T08:08:11.399Z,11.80
2017-10-18T08:10:39.695Z,11.90
2017-10-18T08:13:08.741Z,12.10
2017-10-18T08:15:37.023Z,12.00
2017-10-18T08:18:05.300Z,12.20
2017-10-18T08:20:34.359Z,12.40
2017-10-18T08:23:02.635Z,12.30
2017-10-18T08:25:31.714Z,12.60
2017-10-18T08:28:00.803Z,12.70
2017-10-18T08:30:29.863Z,12.80
2017-10-18T08:32:58.134Z,12.80
2017-10-18T08:35:27.191Z,13.10
2017-10-18T08:37:55.463Z,13.00
2017-10-18T08:40:24.755Z,13.30
2017-10-18T08:42:53.036Z,13.20
2017-10-18T08:45:22.079Z,13.50
2017-10-18T08:47:51.883Z,13.60
2017-10-18T08:50:20.163Z,13.60
2017-10-18T08:52:49.232Z,13.60
2017-10-18T08:55:17.507Z,13.50
2017-10-18T08:57:46.583Z,13.80
2017-10-18T09:00:15.636Z,13.90
2017-10-18T09:02:43.931Z,13.80
2017-10-18T09:05:12.985Z,14.10
2017-10-18T09:07:41.287Z,14.00
2017-10-18T09:10:09.581Z,14.10
2017-10-18T09:12:37.850Z,14.10
2017-10-18T09:15:06.144Z,14.20
2017-10-18T09:17:34.428Z,14.30
2017-10-18T09:20:03.483Z,14.50
2017-10-18T09:22:31.762Z,14.50
2017-10-18T09:25:00.867Z,14.50
2017-10-18T09:27:29.143Z,14.50
2017-10-18T09:29:57.445Z,14.50
2017-10-18T09:32:25.715Z,14.50
2017-10-18T09:34:54.807Z,14.70
2017-10-18T09:37:23.846Z,14.80
2017-10-18T09:39:52.142Z,14.70
2017-10-18T09:42:21.192Z,15.10
2017-10-18T09:44:49.487Z,15.00
2017-10-18T09:47:18.534Z,15.50
2017-10-18T09:49:48.330Z,15.60
2017-10-18T09:52:16.610Z,15.60
2017-10-18T09:54:45.667Z,15.90
2017-10-18T09:57:13.946Z,15.80
2017-10-18T09:59:42.250Z,15.90
2017-10-18T10:02:10.528Z,15.70
2017-10-18T10:04:38.831Z,15.80
2017-10-18T10:07:07.106Z,16.00
2017-10-18T10:09:36.175Z,16.20
2017-10-18T10:12:05.226Z,16.30
2017-10-18T10:14:33.518Z,16.30
2017-10-18T10:17:02.567Z,16.30
2017-10-18T10:19:30.859Z,16.30
2017-10-18T10:21:59.903Z,16.40
2017-10-18T10:24:28.203Z,16.40
2017-10-18T10:26:57.243Z,16.70
2017-10-18T10:29:25.554Z,16.60
2017-10-18T10:31:53.837Z,16.80
2017-10-18T10:34:22.110Z,17.00
2017-10-18T10:36:50.411Z,17.30
2017-10-18T10:39:18.692Z,17.60
2017-10-18T10:41:47.767Z,17.90
2017-10-18T10:44:16.853Z,18.10
2017-10-18T10:46:45.160Z,18.00
2017-10-18T10:49:13.455Z,18.20
2017-10-18T10:51:41.768Z,18.40
2017-10-18T10:54:10.075Z,18.50
2017-10-18T10:56:38.376Z,18.60
2017-10-18T10:59:06.667Z,18.70
2017-10-18T11:01:34.952Z,18.80
2017-10-18T11:04:03.243Z,18.90
2017-10-18T11:06:32.283Z,18.90
2017-10-18T11:09:00.655Z,18.80
2017-10-18T11:11:28.938Z,18.90
2017-10-18T11:13:57.238Z,18.70
2017-10-18T11:16:25.510Z,19.10
2017-10-18T11:18:53.836Z,19.50
2017-10-18T11:21:23.476Z,19.60
2017-10-18T11:23:51.752Z,19.60
2017-10-18T11:26:20.052Z,19.80
2017-10-18T11:28:49.100Z,20.00
2017-10-18T11:31:17.405Z,20.00
2017-10-18T11:33:46.451Z,20.40
2017-10-18T11:36:14.759Z,20.30
2017-10-18T11:38:43.053Z,20.70
2017-10-18T11:41:11.347Z,20.90
2017-10-18T11:43:40.398Z,21.10
2017-10-18T11:46:08.695Z,21.00
2017-10-18T11:48:37.755Z,20.80
2017-10-18T11:51:06.051Z,20.80
2017-10-18T11:53:34.338Z,21.00
2017-10-18T11:56:02.637Z,21.30
2017-10-18T11:58:30.924Z,21.30
2017-10-18T12:01:00.028Z,21.50
2017-10-18T12:03:28.315Z,21.40
2017-10-18T12:05:59.604Z,21.60
2017-10-18T12:08:27.915Z,21.80
2017-10-18T12:10:56.198Z,22.00
2017-10-18T12:13:24.495Z,22.10
2017-10-18T12:15:52.779Z,21.90
2017-10-18T12:18:21.503Z,22.20
2017-10-18T12:20:50.556Z,22.40
2017-10-18T12:23:18.846Z,22.30
2017-10-18T12:25:47.911Z,22.30
2017-10-18T12:28:16.187Z,22.30
2017-10-18T12:30:45.262Z,23.20
2017-10-18T12:33:13.555Z,23.20
2017-10-18T12:35:41.859Z,23.30
2017-10-18T12:38:10.135Z,23.20
2017-10-18T12:40:38.423Z,23.50
2017-10-18T12:43:07.471Z,24.10
2017-10-18T12:45:35.768Z,24.00
2017-10-18T12:48:04.804Z,24.80
2017-10-18T12:50:33.106Z,24.70
2017-10-18T12:53:01.379Z,24.90
2017-10-18T12:55:30.427Z,24.80
2017-10-18T12:57:58.698Z,24.70
2017-10-18T13:00:26.992Z,24.90
2017-10-18T13:02:56.042Z,25.20
2017-10-18T13:05:24.342Z,25.10
2017-10-18T13:07:52.615Z,25.20
2017-10-18T13:10:20.891Z,25.30
2017-10-18T13:12:49.183Z,25.30
2017-10-18T13:15:17.459Z,25.00
2017-10-18T13:17:46.548Z,25.00
2017-10-18T13:20:14.823Z,24.90
2017-10-18T13:22:43.092Z,24.80
2017-10-18T13:25:11.372Z,24.90
2017-10-18T13:27:39.655Z,25.30
2017-10-18T13:30:07.937Z,25.50
2017-10-18T13:32:37.027Z,25.10
2017-10-18T13:35:06.073Z,25.30
2017-10-18T13:37:34.334Z,25.20
2017-10-18T13:40:02.631Z,25.10
2017-10-18T13:42:30.904Z,25.20
2017-10-18T13:44:59.203Z,25.00
2017-10-18T13:47:27.476Z,25.20
2017-10-18T13:49:55.758Z,25.20
2017-10-18T13:52:24.807Z,24.60
2017-10-18T13:54:53.095Z,24.60
2017-10-18T13:57:21.360Z,24.40
2017-10-18T13:59:50.464Z,24.10
2017-10-18T14:02:18.758Z,24.10
2017-10-18T14:04:47.047Z,24.00
2017-10-18T14:07:15.339Z,23.80
2017-10-18T14:09:43.652Z,24.00
2017-10-18T14:12:11.934Z,24.00
2017-10-18T14:14:40.239Z,24.30
2017-10-18T14:17:09.279Z,23.90
2017-10-18T14:19:37.554Z,23.90
2017-10-18T14:22:05.828Z,23.80
2017-10-18T14:24:34.931Z,23.50
2017-10-18T14:27:03.211Z,23.50
2017-10-18T14:29:31.506Z,23.20
2017-10-18T14:32:00.631Z,22.70
2017-10-18T14:34:28.908Z,22.70
2017-10-18T14:36:57.191Z,22.60
2017-10-18T14:39:25.462Z,22.50
2017-10-18T14:41:53.762Z,22.50
2017-10-18T14:44:22.047Z,22.50
2017-10-18T14:46:50.326Z,22.10
2017-10-18T14:49:18.618Z,22.00
2017-10-18T14:51:47.694Z,22.20
2017-10-18T14:54:15.983Z,22.10
2017-10-18T14:56:44.271Z,22.40
2017-10-18T14:59:12.574Z,22.70
2017-10-18T15:01:40.859Z,23.00
2017-10-18T15:04:09.907Z,23.70
2017-10-18T15:06:38.191Z,23.70
2017-10-18T15:09:07.244Z,24.00
2017-10-18T15:11:35.520Z,23.90
2017-10-18T15:14:03.822Z,23.90
2017-10-18T15:16:32.108Z,23.80
2017-10-18T15:19:00.425Z,23.60
2017-10-18T15:21:29.483Z,23.10
2017-10-18T15:23:57.778Z,23.10
2017-10-18T15:26:26.823Z,22.70
2017-10-18T15:28:55.091Z,22.60
2017-10-18T15:31:23.371Z,22.40
2017-10-18T15:33:51.651Z,22.30
2017-10-18T15:36:19.944Z,21.90
2017-10-18T15:38:48.219Z,21.70
2017-10-18T15:41:16.528Z,21.50
2017-10-18T15:43:44.806Z,21.30
2017-10-18T15:46:13.087Z,21.10
2017-10-18T15:48:41.353Z,20.90
2017-10-18T15:51:09.643Z,20.80
2017-10-18T15:53:37.921Z,20.70
2017-10-18T15:56:06.979Z,20.30
2017-10-18T15:58:35.256Z,20.20
2017-10-18T16:01:04.303Z,19.90
2017-10-18T16:03:32.600Z,19.90
2017-10-18T16:06:01.647Z,19.50
2017-10-18T16:08:29.923Z,19.50
2017-10-18T16:10:58.219Z,19.30
2017-10-18T16:13:26.490Z,19.20
2017-10-18T16:15:54.774Z,19.00
2017-10-18T16:18:23.051Z,18.80
2017-10-18T16:20:51.315Z,18.70
2017-10-18T16:23:19.608Z,18.50
2017-10-18T16:25:48.651Z,18.10
2017-10-18T16:28:16.938Z,18.00
2017-10-18T16:30:45.227Z,18.00
2017-10-18T16:33:13.546Z,17.80
2017-10-18T16:35:43.327Z,17.50
2017-10-18T16:38:11.623Z,17.50
2017-10-18T16:40:39.883Z,17.40
2017-10-18T16:43:08.941Z,17.10
2017-10-18T16:45:38.733Z,16.70
2017-10-18T16:48:07.018Z,16.80
2017-10-18T16:50:35.283Z,16.70
2017-10-18T16:53:03.601Z,16.50
2017-10-18T16:55:31.872Z,16.40
2017-10-18T16:58:00.990Z,16.30
2017-10-18T17:00:29.252Z,16.30
2017-10-18T17:02:58.640Z,16.10
2017-10-18T17:05:27.686Z,16.00
2017-10-18T17:07:55.950Z,15.90
2017-10-18T17:10:24.231Z,15.90
2017-10-18T17:12:52.500Z,15.90
2017-10-18T17:15:21.550Z,15.80
2017-10-18T17:17:49.811Z,15.70
2017-10-18T17:20:18.107Z,15.70
2017-10-18T17:22:47.151Z,15.30
2017-10-18T17:25:15.440Z,15.30
2017-10-18T17:27:43.715Z,15.30
2017-10-18T17:30:12.767Z,15.00
2017-10-18T17:32:41.058Z,14.90
2017-10-18T17:35:10.200Z,14.90
2017-10-18T17:37:38.484Z,14.80
2017-10-18T17:40:06.756Z,14.80
2017-10-18T17:42:35.819Z,14.60
2017-10-18T17:45:04.079Z,14.50
2017-10-18T17:47:32.403Z,14.60
2017-10-18T17:52:59.719Z,14.50
2017-10-18T17:55:27.996Z,14.40
2017-10-18T17:57:56.283Z,14.40
2017-10-18T18:00:24.546Z,14.30
2017-10-18T18:02:52.867Z,14.20
2017-10-18T18:05:21.136Z,14.20
2017-10-18T18:07:49.404Z,14.20
2017-10-18T18:10:17.695Z,14.00
2017-10-18T18:12:45.980Z,13.90
2017-10-18T18:15:15.065Z,13.80
2017-10-18T18:17:44.099Z,13.70
2017-10-18T18:20:12.504Z,13.70
2017-10-18T18:22:41.548Z,13.60
2017-10-18T18:25:09.845Z,13.60
2017-10-18T18:27:38.883Z,13.50
2017-10-18T18:30:07.624Z,13.40
2017-10-18T18:32:36.124Z,13.50
2017-10-18T18:35:04.424Z,13.30
2017-10-18T18:37:33.475Z,13.10
2017-10-18T18:40:01.746Z,13.10
2017-10-18T18:42:30.040Z,13.10
2017-10-18T18:44:59.079Z,13.00
2017-10-18T18:47:27.439Z,12.90
2017-10-18T18:49:55.711Z,13.00
2017-10-18T18:52:23.998Z,12.90
2017-10-18T18:54:53.036Z,12.80
2017-10-18T18:57:21.315Z,12.70
2017-10-18T18:59:51.086Z,12.70
2017-10-18T19:02:19.370Z,12.70
2017-10-18T19:04:47.650Z,12.70
2017-10-18T19:07:16.705Z,12.70
2017-10-18T19:09:45.003Z,12.60
2017-10-18T19:12:14.047Z,12.60
2017-10-18T19:14:42.319Z,12.60
2017-10-18T19:17:10.598Z,12.60
2017-10-18T19:19:39.644Z,12.40
2017-10-18T19:22:08.126Z,12.30
2017-10-18T19:24:36.394Z,12.40
2017-10-18T19:27:04.660Z,12.30
2017-10-18T19:29:33.723Z,12.20
2017-10-18T19:32:01.983Z,12.10
2017-10-18T19:34:30.267Z,12.10
2017-10-18T19:36:59.346Z,12.00
2017-10-18T19:39:27.615Z,12.00
2017-10-18T19:41:56.684Z,11.90
2017-10-18T19:44:25.754Z,11.80
2017-10-18T19:46:54.016Z,11.70
2017-10-18T19:49:22.284Z,11.70
2017-10-18T19:51:51.335Z,11.70
2017-10-18T19:54:19.614Z,11.70
2017-10-18T19:56:47.903Z,11.70
2017-10-18T19:59:16.162Z,11.60
2017-10-18T20:01:44.431Z,11.50
2017-10-18T20:04:12.756Z,11.40
2017-10-18T20:06:41.039Z,11.40
2017-10-18T20:09:10.211Z,11.40
2017-10-18T20:11:39.251Z,11.40
2017-10-18T20:14:07.568Z,11.40
2017-10-18T20:16:36.606Z,11.20
2017-10-18T20:19:04.873Z,11.20
2017-10-18T20:21:33.145Z,11.20
2017-10-18T20:24:01.436Z,11.20
2017-10-18T20:26:29.699Z,11.20
2017-10-18T20:28:57.994Z,11.20
2017-10-18T20:31:26.293Z,11.20
2017-10-18T20:33:54.574Z,11.20
2017-10-18T20:36:22.847Z,11.10
2017-10-18T20:38:51.171Z,11.10
2017-10-18T20:41:19.435Z,11.00
2017-10-18T20:43:49.216Z,10.80
2017-10-18T20:46:17.508Z,10.80
2017-10-18T20:48:46.540Z,10.70
2017-10-18T20:51:14.894Z,10.70
2017-10-18T20:53:43.619Z,10.70
2017-10-18T20:56:12.786Z,10.70
2017-10-18T20:58:41.062Z,10.60
2017-10-18T21:01:10.122Z,10.40
2017-10-18T21:03:38.393Z,10.40
2017-10-18T21:06:08.188Z,10.40
2017-10-18T21:08:36.460Z,10.40
2017-10-18T21:11:05.514Z,10.40
2017-10-18T21:13:33.788Z,10.30
2017-10-18T21:16:02.079Z,10.30
2017-10-18T21:18:30.351Z,10.40
2017-10-18T21:20:59.439Z,10.30
2017-10-18T21:23:28.500Z,10.30
2017-10-18T21:25:58.287Z,10.20
2017-10-18T21:28:26.578Z,10.20
2017-10-18T21:30:55.763Z,10.10
2017-10-18T21:33:24.806Z,10.10
2017-10-18T21:35:53.071Z,10.00
2017-10-18T21:38:21.360Z,10.00
2017-10-18T21:40:50.395Z,9.90
2017-10-18T21:43:18.675Z,9.90
2017-10-18T21:45:46.935Z,9.80
2017-10-18T21:48:16.294Z,9.90
2017-10-18T21:50:44.567Z,9.80
2017-10-18T21:53:12.835Z,9.90
2017-10-18T21:55:41.119Z,9.90
2017-10-18T21:58:09.375Z,9.90
2017-10-18T22:00:38.425Z,9.80
2017-10-18T22:03:06.686Z,9.80
2017-10-18T22:05:34.958Z,9.70
2017-10-18T22:08:03.220Z,9.70
2017-10-18T22:10:31.521Z,9.60
2017-10-18T22:13:00.589Z,9.50
2017-10-18T22:15:29.649Z,9.60
2017-10-18T22:17:58.131Z,9.50
2017-10-18T22:20:27.243Z,9.50
2017-10-18T22:22:55.539Z,9.40
2017-10-18T22:25:23.805Z,9.40
2017-10-18T22:27:52.132Z,9.30
2017-10-18T22:30:20.579Z,9.30
2017-10-18T22:32:49.856Z,9.20
2017-10-18T22:35:18.965Z,9.10
2017-10-18T22:37:47.396Z,9.10
2017-10-18T22:40:15.696Z,9.10
2017-10-18T22:42:43.971Z,9.00
2017-10-18T22:45:14.526Z,9.00
2017-10-18T22:47:42.828Z,9.10
2017-10-18T22:50:11.087Z,9.20
2017-10-18T22:52:39.342Z,9.10
2017-10-18T22:55:07.630Z,9.00
2017-10-18T22:57:35.887Z,8.90
2017-10-18T23:00:04.169Z,8.80
2017-10-18T23:02:32.443Z,8.80
2017-10-18T23:05:00.726Z,8.70
2017-10-18T23:07:29.751Z,8.80
2017-10-18T23:09:58.040Z,8.70
2017-10-18T23:12:26.312Z,8.80
2017-10-18T23:14:54.583Z,8.70
2017-10-18T23:17:23.623Z,8.50
2017-10-18T23:19:51.900Z,8.50
2017-10-18T23:22:20.159Z,8.50
2017-10-18T23:24:48.455Z,8.50
2017-10-18T23:27:16.732Z,8.40
2017-10-18T23:29:45.038Z,8.40
2017-10-18T23:32:13.283Z,8.30
2017-10-18T23:34:41.538Z,8.30
2017-10-18T23:37:09.827Z,8.30
2017-10-18T23:39:38.079Z,8.30
2017-10-18T23:42:06.363Z,8.30
2017-10-18T23:44:34.623Z,8.30
2017-10-18T23:47:02.903Z,8.30
2017-10-18T23:49:31.171Z,8.30
2017-10-18T23:51:59.447Z,8.20
2017-10-18T23:54:27.752Z,8.10
2017-10-18T23:56:55.995Z,8.10
2017-10-18T23:59:24.274Z,8.10
